Location Weather   FltPlan.com
Note: Certified Weather is only available to Registered Users.    Weather Page Abbreviations

Metar Reports     TFR Flight Restrictions      LOOK-UP Abbreviations       Plain Text
Click here for more info on FltPlan Go!
KBID 260310Z AUTO 03007KT 10SM BKN015 03/02 A3041 RMK AO2
KBID 260256Z AUTO 05005KT 10SM OVC013 04/02 A3040 RMK AO2 SLP299 T00390022 53007
KBID 260156Z AUTO 04007KT 10SM OVC013 04/02 A3040 RMK AO2 SLP298 T00390022
KBID 260116Z AUTO 05004KT 10SM OVC013 04/03 A3039 RMK AO2
KBID 260056Z AUTO 06005KT 10SM FEW006 OVC015 04/03 A3038 RMK AO2 SLP292 T00390028
KBID 260051Z AUTO 06004KT 10SM SCT006 OVC015 04/03 A3038 RMK AO2


Terminal Forecasts     LOOK-UP Abbreviations       Plain Text
Forecast For KBID Not Found

Using Forecast For KPVD
KPVD 260210Z 2602/2624 02003KT P6SM FEW014 SCT250 SCT300
FM261200 04007KT P6SM BKN050
FM261500 07009KT P6SM BKN060
FM261700 09008KT P6SM OVC030
FM261900 10008KT P6SM OVC040
FM262100 11009KT P6SM VCSH OVC045



RECENT NOTAMs (new or modified) from the last 12 hours     LOOK-UP Abbreviations  
  No NOTAMs were submitted for KBID in the last 12 hours

NOTAMS      TFR Flight Restrictions     LOOK-UP Abbreviations       Check Approach/Airway FDC Notams for:KBID  
(International notams may be incomplete)
BID 03/025 BID RWY 10 PAPI OUT OF SERVICE 1703231434-1703302000EST
BID 02/014 BID RWY 10/28 SAFETY AREA NOT STD SE 1702081504-PERM
BID 03/027 BID AIRSPACE WIND TURBINE FARM WI AN AREA DEFINED AS .5NM
            RADIUS OF 410733N0713027W (4.5NM SE BID) 659FT (659FT AGL) NOT LGTD
            1703241937-1704151000
            
BID 02/015 BID TWY A SAFETY AREA NORTH OF TWY C IRREGULAR SFC
            1702081430-1705081430EST
BID 02/017 BID TWY A SAFETY AREA WEST OF TWY B IRREGULAR SFC EAST
            EDGE 1702081500-1705081430EST



Nearby Departure Airport METARS
KGON 260256Z AUTO 06008KT 10SM OVC014 05/02 A3040 RMK AO2 SLP294 T00500017
KPVD 260251Z 00000KT 8SM FEW250 FEW300 02/01 A3041 RMK AO2 SLP297 T00220006
KEWB 260301Z AUTO 00000KT 1 3/4SM BR CLR M01/M02 A3040 RMK AO2 T10061022
KSFZ 260256Z AUTO 01004KT 7SM CLR M01/M02 A3040 RMK AO2 SLP314 T10111017 53009 FZRANO
KMVY 260253Z AUTO 33005KT 10SM CLR 01/M01 A3040 RMK AO2 SLP293 T00111011

KGON = GROTON-NEW LONDON GROTON CT
KMVY = MARTHAS VINEYARD VINEYARD HAV MA
KEWB = NEW BEDFORD RGNL NEW BEDFORD MA
KOQU = QUONSET STATE N.KINGSTOWN RI
KSFZ = NORTH CENTRAL STATE PAWTUCKET RI
KPVD = THEODORE FRANCIS GREEN STATE PROVIDENCE RI



GPS Notams     LOOK-UP Abbreviations  
GPS 03/042 ZKC NAV (WSMR GPS 17-03) GPS (INCLUDING WAAS, GBAS, AND
        ADS-B) MAY NOT BE AVBL WI A 542NM RADIUS CENTERED AT 325928N1061655W
        (TCS 099053) FL400-UNL CHANGING IN AREA WITH DECREASE IN ALT,
        DEFINED AS:
        485NM RADIUS AT FL250,
        412NM RADIUS AT 10000FT MSL,
        417NM RADIUS AT 4000FT AGL,
        399NM RADIUS AT 50FT AGL.
        DLY 0530-1330
        1703290530-1703311330

GPS 03/038 ZAB NAV (WSMR GPS 17-03) GPS (INCLUDING WAAS, GBAS, AND
        ADS-B) MAY NOT BE AVBL WI A 542NM RADIUS CENTERED AT 325928N1061655W
        (TCS 099053) FL400-UNL CHANGING IN AREA WITH DECREASE IN ALT,
        DEFINED AS:
        485NM RADIUS AT FL250,
        412NM RADIUS AT 10000FT MSL,
        417NM RADIUS AT 4000FT AGL,
        399NM RADIUS AT 50FT AGL.
        DLY 0530-1330
        1703290530-1703311330

GPS 03/040 ZFW NAV (WSMR GPS 17-03) GPS (INCLUDING WAAS, GBAS, AND
        ADS-B) MAY NOT BE AVBL WI A 542NM RADIUS CENTERED AT 325928N1061655W
        (TCS 099053) FL400-UNL CHANGING IN AREA WITH DECREASE IN ALT,
        DEFINED AS:
        485NM RADIUS AT FL250,
        412NM RADIUS AT 10000FT MSL,
        417NM RADIUS AT 4000FT AGL,
        399NM RADIUS AT 50FT AGL.
        DLY 0530-1330
        1703290530-1703311330

GPS 03/041 ZHU NAV (WSMR GPS 17-03) GPS (INCLUDING WAAS, GBAS, AND
        ADS-B) MAY NOT BE AVBL WI A 542NM RADIUS CENTERED AT 325928N1061655W
        (TCS 099053) FL400-UNL CHANGING IN AREA WITH DECREASE IN ALT,
        DEFINED AS:
        485NM RADIUS AT FL250,
        412NM RADIUS AT 10000FT MSL,
        417NM RADIUS AT 4000FT AGL,
        399NM RADIUS AT 50FT AGL.
        DLY 0530-1330
        1703290530-1703311330

GPS 03/035 ZSE NAV (MHRC GPS 17-01) GPS (INCLUDING WAAS, GBAS, AND
        ADS-B) MAY NOT BE AVBL WI A 167NM RADIUS CENTERED AT
        422114N1154618W (BOI152074) FL400-UNL CHANGING IN AREA WITH ALT
        DEFINED AS:
        167NM RADIUS AT FL250
        163NM RADIUS AT 10000 FT
        160NM RADIUS AT 4000 FT AGL
        114NM RADIUS AT 40 FT AGL
        DLY 0000-0130 1630-2359
        1703250000-1703312359

GPS 03/036 ZOA NAV (MHRC GPS 17-01) GPS (INCLUDING WAAS, GBAS, AND
        ADS-B) MAY NOT BE AVBL WI A 167NM RADIUS CENTERED AT
        422114N1154618W (BOI152074) FL400-UNL CHANGING IN AREA WITH ALT
        DEFINED AS:
        167NM RADIUS AT FL250
        163NM RADIUS AT 10000 FT
        160NM RADIUS AT 4000 FT AGL
        114NM RADIUS AT 40 FT AGL
        DLY 0000-0130 1630-2359
        1703250000-1703312359

GPS 03/036 ZOA NAV (MHRC GPS 17-01) GPS (INCLUDING WAAS, GBAS, AND
        ADS-B) MAY NOT BE AVBL WI A 167NM RADIUS CENTERED AT
        422114N1154618W (BOI152074) FL400-UNL CHANGING IN AREA WITH ALT
        DEFINED AS:
        167NM RADIUS AT FL250
        163NM RADIUS AT 10000 FT
        160NM RADIUS AT 4000 FT AGL
        114NM RADIUS AT 40 FT AGL
        DLY 0000-0130 1630-2359
        1703250000-1703312359

GPS 03/043 ZLA NAV (WSMR GPS 17-03) GPS (INCLUDING WAAS, GBAS, AND
        ADS-B) MAY NOT BE AVBL WI A 542NM RADIUS CENTERED AT 325928N1061655W
        (TCS 099053) FL400-UNL CHANGING IN AREA WITH DECREASE IN ALT,
        DEFINED AS:
        485NM RADIUS AT FL250,
        412NM RADIUS AT 10000FT MSL,
        417NM RADIUS AT 4000FT AGL,
        399NM RADIUS AT 50FT AGL.
        DLY 0530-1330
        1703290530-1703311330

GPS 03/039 ZDV NAV (WSMR GPS 17-03) GPS (INCLUDING WAAS, GBAS, AND
        ADS-B) MAY NOT BE AVBL WI A 542NM RADIUS CENTERED AT 325928N1061655W
        (TCS 099053) FL400-UNL CHANGING IN AREA WITH DECREASE IN ALT,
        DEFINED AS:
        485NM RADIUS AT FL250,
        412NM RADIUS AT 10000FT MSL,
        417NM RADIUS AT 4000FT AGL,
        399NM RADIUS AT 50FT AGL.
        DLY 0530-1330
        1703290530-1703311330

GPS 03/037 ZLC NAV (MHRC GPS 17-01) GPS (INCLUDING WAAS, GBAS, AND
        ADS-B) MAY NOT BE AVBL WI A 167NM RADIUS CENTERED AT
        422114N1154618W (BOI152074) FL400-UNL CHANGING IN AREA WITH ALT
        DEFINED AS:
        167NM RADIUS AT FL250
        163NM RADIUS AT 10000 FT
        160NM RADIUS AT 4000 FT AGL
        114NM RADIUS AT 40 FT AGL
        DLY 0000-0130 1630-2359
        1703250000-1703312359

GPS 03/031 GPS NAV PRN 11 OUT OF SERVICE 1703161305-1803161400